• °C
  • Pobieranie danych...
wx


SEKCJA WYDRUKÓW, pokaż »

METAR EPBY 200330Z 22011KT 3300 -RADZ BR BKN002 12/12 Q1011=

METAR EPGD 200330Z 22013KT 9999 OVC005 12/11 Q1007 =

METAR EPKK 200330Z VRB01KT CAVOK 08/06 Q1019 =

METAR EPKT 200330Z 22016KT 9999 FEW038 12/07 Q1018 =

METAR EPLB 200330Z 21011KT CAVOK 10/07 Q1018 =

METAR EPLL 200330Z 21007KT 170V240 9999 SCT014 BKN020 12/08 Q1015 =

METAR EPMO 200330Z 19008KT 9999 FEW010 BKN027 10/10 Q1014 =

METAR EPPO 200330Z 21007KT 2800 -RA BR OVC003 13/13 Q1013 =

METAR EPRA 200330Z NIL=

METAR EPRZ 200330Z 21010KT 180V260 CAVOK 11/05 Q1020 =

METAR EPSC 200330Z 20010KT 140V240 9999 SCT006 BKN008 14/13 Q1009 =

METAR EPSY 200330Z 20009KT 5000 BR BKN009 BKN019 10/10 Q1011 RERA=

METAR EPWA 200330Z 19006KT 9999 BKN040 10/08 Q1015 TEMPO BKN014=

METAR EPWR 200330Z 21006KT CAVOK 13/10 Q1015 =

METAR EPZG 200330Z 20010KT 9999 SCT019 15/13 Q1013 =



Serwisy IMGW-PIB